createdAt,value
2019-03-16T00:00:33.745Z,30.2
2019-03-16T00:01:23.760Z,29.5
2019-03-16T00:02:13.276Z,29
2019-03-16T00:03:03.586Z,28.6
2019-03-16T00:03:53.090Z,28.4
2019-03-16T00:04:43.414Z,28.2
2019-03-16T00:05:33.039Z,28.1
2019-03-16T00:06:23.339Z,27.9
2019-03-16T00:07:12.551Z,27.7
2019-03-16T00:08:03.459Z,27.6
2019-03-16T00:08:53.723Z,27.4
2019-03-16T00:09:44.613Z,27.3
2019-03-16T00:10:34.088Z,27.3
2019-03-16T00:11:23.906Z,27.2
2019-03-16T00:12:14.038Z,27.1
2019-03-16T00:13:04.386Z,27.1
2019-03-16T00:13:54.425Z,27.1
2019-03-16T00:14:43.565Z,27.1
2019-03-16T00:15:33.920Z,27
2019-03-16T00:16:24.302Z,26.6
2019-03-16T00:17:25.815Z,27.3
2019-03-16T00:18:03.863Z,28.3
2019-03-16T00:18:53.570Z,28.8
2019-03-16T00:19:44.731Z,29.2
2019-03-16T00:20:34.915Z,29.6
2019-03-16T00:21:24.313Z,29.9
2019-03-16T00:22:14.388Z,30.3
2019-03-16T00:23:05.441Z,30.5
2019-03-16T00:23:54.768Z,30.8
2019-03-16T00:24:44.804Z,31
2019-03-16T00:25:35.001Z,31.3
2019-03-16T00:26:24.982Z,31.4
2019-03-16T00:27:15.300Z,31.6
2019-03-16T00:28:05.074Z,31.8
2019-03-16T00:28:54.860Z,31.9
2019-03-16T00:29:45.806Z,32.1
2019-03-16T00:30:34.574Z,32.3
2019-03-16T00:31:25.847Z,32.4
2019-03-16T00:32:21.417Z,32.6
2019-03-16T00:33:04.942Z,32.7
2019-03-16T00:33:55.832Z,32.8
2019-03-16T00:34:45.060Z,32.9
2019-03-16T00:35:35.162Z,32.3
2019-03-16T00:36:25.942Z,31.9
2019-03-16T00:37:16.007Z,31.8
2019-03-16T00:38:06.052Z,31.5
2019-03-16T00:38:56.109Z,31.1
2019-03-16T00:39:46.172Z,30.5
2019-03-16T00:40:36.274Z,29.9
2019-03-16T00:41:26.294Z,29.4
2019-03-16T00:42:16.714Z,29
2019-03-16T00:43:06.719Z,28.7
2019-03-16T00:43:56.456Z,28.5
2019-03-16T00:44:45.974Z,28.4
2019-03-16T00:45:36.322Z,28.2
2019-03-16T00:46:26.754Z,27.9
2019-03-16T00:47:16.177Z,27.8
2019-03-16T00:48:07.050Z,27.6
2019-03-16T00:48:57.106Z,27.5
2019-03-16T00:49:47.423Z,27.4
2019-03-16T00:50:37.018Z,27.3
2019-03-16T00:51:27.071Z,27.3
2019-03-16T00:52:17.421Z,27.2
2019-03-16T00:53:06.821Z,27.2
2019-03-16T00:53:56.663Z,27.1
2019-03-16T00:54:46.688Z,27.1
2019-03-16T00:55:36.728Z,26.8
2019-03-16T00:56:27.111Z,26.9
2019-03-16T00:58:07.176Z,28.6
2019-03-16T00:58:57.218Z,29.1
2019-03-16T00:59:47.655Z,29.4
2019-03-16T01:00:37.448Z,29.8
2019-03-16T01:01:27.135Z,30.1
2019-03-16T01:02:35.106Z,30.4
2019-03-16T01:03:07.823Z,30.8
2019-03-16T01:03:57.902Z,30.9
2019-03-16T01:04:47.405Z,31.2
2019-03-16T01:05:37.502Z,31.3
2019-03-16T01:06:26.690Z,31.6
2019-03-16T01:07:16.713Z,31.8
2019-03-16T01:08:07.947Z,31.9
2019-03-16T01:08:57.980Z,32.1
2019-03-16T01:09:50.867Z,32.3
2019-03-16T01:10:38.390Z,32.4
2019-03-16T01:11:28.493Z,32.6
2019-03-16T01:12:18.848Z,32.7
2019-03-16T01:13:07.992Z,32.8
2019-03-16T01:13:58.053Z,32.9
2019-03-16T01:14:48.662Z,32.1
2019-03-16T01:15:38.486Z,31.8
2019-03-16T01:16:29.085Z,31.8
2019-03-16T01:17:18.332Z,31.5
2019-03-16T01:18:08.612Z,31
2019-03-16T01:18:58.912Z,30.4
2019-03-16T01:19:49.057Z,29.8
2019-03-16T01:20:38.758Z,29.3
2019-03-16T01:21:29.144Z,29
2019-03-16T01:22:18.917Z,28.8
2019-03-16T01:23:08.975Z,28.6
2019-03-16T01:23:59.587Z,28.4
2019-03-16T01:24:48.231Z,28.3
2019-03-16T01:25:39.450Z,28
2019-03-16T01:26:29.349Z,27.8
2019-03-16T01:27:20.084Z,27.6
2019-03-16T01:28:09.882Z,27.5
2019-03-16T01:28:59.669Z,27.4
2019-03-16T01:29:48.884Z,27.3
2019-03-16T01:30:39.041Z,27.3
2019-03-16T01:31:30.134Z,27.3
2019-03-16T01:32:19.891Z,27.2
2019-03-16T01:33:10.244Z,27.1
2019-03-16T01:33:59.729Z,27.1
2019-03-16T01:34:51.334Z,27
2019-03-16T01:35:40.418Z,26.8
2019-03-16T01:36:30.466Z,27.6
2019-03-16T01:37:18.876Z,28.4
2019-03-16T01:38:10.316Z,29
2019-03-16T01:38:59.533Z,29.4
2019-03-16T01:39:49.856Z,29.8
2019-03-16T01:40:40.358Z,30.2
2019-03-16T01:41:29.800Z,30.5
2019-03-16T01:42:20.126Z,30.8
2019-03-16T01:43:10.565Z,30.9
2019-03-16T01:43:59.425Z,29.9
2019-03-16T01:44:50.523Z,28.8
2019-03-16T01:45:40.837Z,27.3
2019-03-16T01:46:30.990Z,26
2019-03-16T01:47:20.968Z,24.9
2019-03-16T01:48:11.057Z,25.1
2019-03-16T01:49:01.065Z,25.4
2019-03-16T01:49:51.130Z,26.7
2019-03-16T01:50:41.595Z,27.8
2019-03-16T01:51:30.987Z,28.6
2019-03-16T01:52:20.562Z,29.3
2019-03-16T01:53:10.810Z,29.8
2019-03-16T01:54:01.014Z,30.2
2019-03-16T01:54:51.777Z,30.6
2019-03-16T01:55:41.892Z,30.9
2019-03-16T01:56:32.201Z,31.2
2019-03-16T01:57:21.758Z,31.5
2019-03-16T01:58:11.740Z,31.8
2019-03-16T01:59:01.499Z,32
2019-03-16T01:59:51.574Z,32.2
2019-03-16T02:00:42.165Z,32.4
2019-03-16T02:01:32.267Z,32.6
2019-03-16T02:02:21.524Z,32.8
2019-03-16T02:03:12.092Z,32.9
2019-03-16T02:04:02.229Z,33.1
2019-03-16T02:04:52.274Z,32.3
2019-03-16T02:05:41.198Z,31.9
2019-03-16T02:06:32.417Z,31.9
2019-03-16T02:07:22.717Z,31.6
2019-03-16T02:08:12.516Z,31.1
2019-03-16T02:09:01.751Z,30.6
2019-03-16T02:09:52.049Z,29.9
2019-03-16T02:10:42.319Z,29.3
2019-03-16T02:11:32.394Z,28.8
2019-03-16T02:12:22.171Z,28.5
2019-03-16T02:13:12.603Z,28.3
2019-03-16T02:14:02.862Z,28.1
2019-03-16T02:14:52.623Z,28
2019-03-16T02:16:32.784Z,27.6
2019-03-16T02:17:22.399Z,27.6
2019-03-16T02:18:11.751Z,27.4
2019-03-16T02:19:03.246Z,27.3
2019-03-16T02:19:53.248Z,27.3
2019-03-16T02:20:43.026Z,27.3
2019-03-16T02:21:33.705Z,27.2
2019-03-16T02:22:23.614Z,27.1
2019-03-16T02:23:13.558Z,27.1
2019-03-16T02:24:02.803Z,27.1
2019-03-16T02:24:53.832Z,26.9
2019-03-16T02:25:43.701Z,26.9
2019-03-16T02:26:33.994Z,27.9
2019-03-16T02:27:24.071Z,28.6
2019-03-16T02:28:14.116Z,29.3
2019-03-16T02:29:03.906Z,29.7
2019-03-16T02:29:54.040Z,30.1
2019-03-16T02:30:42.975Z,30.4
2019-03-16T02:31:34.440Z,30.7
2019-03-16T02:32:23.236Z,31
2019-03-16T02:33:21.648Z,31.3
2019-03-16T02:34:03.523Z,31.5
2019-03-16T02:34:54.751Z,31.7
2019-03-16T02:35:44.326Z,31.9
2019-03-16T02:36:33.698Z,32.1
2019-03-16T02:37:24.588Z,32.3
2019-03-16T02:38:14.343Z,32.4
2019-03-16T02:39:05.018Z,32.7
2019-03-16T02:39:54.229Z,32.8
2019-03-16T02:40:44.462Z,32.9
2019-03-16T02:41:35.180Z,33.1
2019-03-16T02:42:25.400Z,32.1
2019-03-16T02:43:14.968Z,31.9
2019-03-16T02:44:04.775Z,31.8
2019-03-16T02:44:54.990Z,31.4
2019-03-16T02:45:44.493Z,30.9
2019-03-16T02:46:35.769Z,30.3
2019-03-16T02:47:24.963Z,29.6
2019-03-16T02:48:14.694Z,29.1
2019-03-16T02:49:04.660Z,28.8
2019-03-16T02:49:55.455Z,28.5
2019-03-16T02:50:45.539Z,28.3
2019-03-16T02:51:35.076Z,28.2
2019-03-16T02:52:25.462Z,28.1
2019-03-16T02:54:05.374Z,27.7
2019-03-16T02:54:55.952Z,27.6
2019-03-16T02:55:45.319Z,27.4
2019-03-16T02:56:36.211Z,27.3
2019-03-16T02:57:25.690Z,27.3
2019-03-16T02:58:15.799Z,27.2
2019-03-16T02:59:05.907Z,27.2
2019-03-16T02:59:56.323Z,27.1
2019-03-16T03:00:46.507Z,27.1
2019-03-16T03:01:36.296Z,27.1
2019-03-16T03:02:25.902Z,26.8
2019-03-16T03:03:34.337Z,27
2019-03-16T03:04:05.816Z,28.3
2019-03-16T03:07:38.863Z,30.2
2019-03-16T03:08:28.465Z,30.6
2019-03-16T03:09:17.949Z,30.9
2019-03-16T03:10:08.759Z,31.1
2019-03-16T03:10:59.104Z,31.4
2019-03-16T03:11:48.589Z,31.6
2019-03-16T03:12:39.089Z,31.9
2019-03-16T03:13:28.570Z,32.1
2019-03-16T03:14:19.381Z,32.3
2019-03-16T03:15:09.202Z,32.5
2019-03-16T03:15:59.274Z,32.6
2019-03-16T03:16:49.363Z,32.8
2019-03-16T03:17:38.944Z,33
2019-03-16T03:18:28.388Z,32.9
2019-03-16T03:19:19.276Z,32.1
2019-03-16T03:20:09.103Z,31.9
2019-03-16T03:20:59.041Z,31.8
2019-03-16T03:21:49.700Z,31.4
2019-03-16T03:22:39.978Z,30.9
2019-03-16T03:23:29.698Z,30.3
2019-03-16T03:24:19.334Z,29.7
2019-03-16T03:25:09.148Z,29.3
2019-03-16T03:25:59.699Z,28.9
2019-03-16T03:26:49.405Z,28.7
2019-03-16T03:27:39.451Z,28.6
2019-03-16T03:28:30.201Z,28.4
2019-03-16T03:29:20.198Z,28.1
2019-03-16T03:30:10.976Z,27.9
2019-03-16T03:31:00.345Z,27.7
2019-03-16T03:31:49.847Z,27.6
2019-03-16T03:32:41.329Z,27.4
2019-03-16T03:34:04.715Z,27.4
2019-03-16T03:34:20.430Z,27.3
2019-03-16T03:35:10.548Z,27.3
2019-03-16T03:36:00.112Z,27.3
2019-03-16T03:36:50.315Z,27.3
2019-03-16T03:37:40.018Z,27.2
2019-03-16T03:38:30.297Z,27.1
2019-03-16T03:39:19.551Z,26.8
2019-03-16T03:40:10.815Z,27.7
2019-03-16T03:41:06.018Z,28.6
2019-03-16T03:41:50.890Z,29.3
2019-03-16T03:42:41.306Z,29.6
2019-03-16T03:43:30.436Z,30.1
2019-03-16T03:44:21.384Z,30.4
2019-03-16T03:45:10.873Z,30.8
2019-03-16T03:46:01.119Z,31.1
2019-03-16T03:46:50.898Z,31.3
2019-03-16T03:47:41.020Z,31.6
2019-03-16T03:48:31.411Z,31.8
2019-03-16T03:49:21.471Z,32
2019-03-16T03:50:11.330Z,32.3
2019-03-16T03:51:01.546Z,32.4
2019-03-16T03:51:51.504Z,32.6
2019-03-16T03:52:41.346Z,32.8
2019-03-16T03:53:31.068Z,32.3
2019-03-16T03:54:21.197Z,31.1
2019-03-16T03:55:11.954Z,29.3
2019-03-16T03:56:01.675Z,28
2019-03-16T03:56:51.323Z,26.6
2019-03-16T03:57:42.091Z,26.1
2019-03-16T03:58:31.481Z,26.1
2019-03-16T03:59:21.929Z,27
2019-03-16T04:00:11.880Z,28.3
2019-03-16T04:01:02.104Z,29.1
2019-03-16T04:01:51.673Z,29.8
2019-03-16T04:02:42.073Z,30.4
2019-03-16T04:03:32.378Z,30.8
2019-03-16T04:04:24.253Z,31.1
2019-03-16T04:05:12.465Z,31.5
2019-03-16T04:06:01.683Z,31.8
2019-03-16T04:06:52.360Z,32.1
2019-03-16T04:07:42.661Z,32.4
2019-03-16T04:08:32.768Z,32.6
2019-03-16T04:09:22.651Z,32.8
2019-03-16T04:10:13.174Z,33
2019-03-16T04:11:02.622Z,32.6
2019-03-16T04:11:53.257Z,31.9
2019-03-16T04:12:42.957Z,31.9
2019-03-16T04:13:32.781Z,31.8
2019-03-16T04:14:22.961Z,31.3
2019-03-16T04:15:12.753Z,30.8
2019-03-16T04:16:03.013Z,30.1
2019-03-16T04:16:53.338Z,29.6
2019-03-16T04:17:43.208Z,29.2
2019-03-16T04:18:33.537Z,28.9
2019-03-16T04:19:23.503Z,28.7
2019-03-16T04:20:13.271Z,28.6
2019-03-16T04:21:03.280Z,28.3
2019-03-16T04:21:53.789Z,28.1
2019-03-16T04:22:43.592Z,27.9
2019-03-16T04:23:33.742Z,27.8
2019-03-16T04:24:23.662Z,27.6
2019-03-16T04:25:28.071Z,27.6
2019-03-16T04:26:04.242Z,27.4
2019-03-16T04:26:53.477Z,27.4
2019-03-16T04:27:44.180Z,27.4
2019-03-16T04:28:33.949Z,27.4
2019-03-16T04:29:23.649Z,27.3
2019-03-16T04:30:14.294Z,27.3
2019-03-16T04:31:04.117Z,26.9
2019-03-16T04:31:54.129Z,26.5
2019-03-16T04:32:44.411Z,26.3
2019-03-16T04:33:34.782Z,26.1
2019-03-16T04:34:37.417Z,25.9
2019-03-16T04:35:14.277Z,25.8
2019-03-16T04:36:04.693Z,25.8
2019-03-16T04:36:54.638Z,25.7
2019-03-16T04:37:44.577Z,25.5
2019-03-16T04:38:34.505Z,25.9
2019-03-16T04:39:24.875Z,27.1
2019-03-16T04:40:15.459Z,28
2019-03-16T04:41:04.343Z,28.7
2019-03-16T04:41:53.868Z,29.2
2019-03-16T04:42:44.367Z,29.6
2019-03-16T04:43:33.469Z,30.1
2019-03-16T04:44:24.447Z,30.4
2019-03-16T04:45:14.707Z,30.7
2019-03-16T04:46:04.742Z,30.9
2019-03-16T04:46:54.254Z,31.2
2019-03-16T04:47:45.399Z,31.4
2019-03-16T04:48:35.150Z,31.7
2019-03-16T04:49:24.099Z,31.9
2019-03-16T04:50:15.284Z,32.1
2019-03-16T04:51:05.182Z,32.3
2019-03-16T04:51:55.361Z,32.4
2019-03-16T04:52:45.749Z,32.6
2019-03-16T04:53:35.809Z,32.8
2019-03-16T04:54:25.874Z,32.9
2019-03-16T04:55:15.492Z,33.1
2019-03-16T04:56:06.032Z,33.3
2019-03-16T04:56:56.326Z,32.4
2019-03-16T04:57:45.862Z,32.2
2019-03-16T04:58:35.702Z,32
2019-03-16T04:59:26.072Z,31.6
2019-03-16T05:00:16.149Z,31.1
2019-03-16T05:01:06.813Z,30.5
2019-03-16T05:01:55.843Z,29.9
2019-03-16T05:02:46.603Z,29.5
2019-03-16T05:03:36.581Z,29.1
2019-03-16T05:04:26.593Z,28.9
2019-03-16T05:05:16.138Z,28.6
2019-03-16T05:06:05.906Z,28.6
2019-03-16T05:06:57.008Z,28.3
2019-03-16T05:07:47.068Z,28
2019-03-16T05:09:27.026Z,27.7
2019-03-16T05:10:16.955Z,27.5
2019-03-16T05:11:07.543Z,27.4
2019-03-16T05:11:57.058Z,27.4
2019-03-16T05:12:47.173Z,27.3
2019-03-16T05:13:36.640Z,27.3
2019-03-16T05:14:26.950Z,27.2
2019-03-16T05:15:16.821Z,27.1
2019-03-16T05:16:07.080Z,27.1
2019-03-16T05:16:57.128Z,26.7
2019-03-16T05:17:47.765Z,27.4
2019-03-16T05:18:37.810Z,28.3
2019-03-16T05:19:27.121Z,29
2019-03-16T05:20:17.412Z,29.4
2019-03-16T05:21:07.807Z,29.9
2019-03-16T05:21:58.043Z,30.3
2019-03-16T05:22:47.839Z,30.6
2019-03-16T05:23:37.983Z,30.9
2019-03-16T05:24:27.934Z,31.2
2019-03-16T05:25:18.022Z,31.4
2019-03-16T05:26:07.563Z,31.7
2019-03-16T05:26:58.182Z,31.9
2019-03-16T05:27:47.172Z,32.2
2019-03-16T05:28:38.230Z,32.4
2019-03-16T05:29:27.762Z,32.6
2019-03-16T05:30:18.335Z,32.8
2019-03-16T05:31:08.426Z,33
2019-03-16T05:31:58.354Z,33.2
2019-03-16T05:32:48.534Z,33.4
2019-03-16T05:33:38.892Z,32.6
2019-03-16T05:34:28.489Z,32.3
2019-03-16T05:35:18.746Z,32.2
2019-03-16T05:36:08.607Z,31.8
2019-03-16T05:37:02.034Z,31.3
2019-03-16T05:37:49.016Z,30.6
2019-03-16T05:38:38.167Z,30
2019-03-16T05:39:28.738Z,29.5
2019-03-16T05:40:18.511Z,29.1
2019-03-16T05:41:09.100Z,28.8
2019-03-16T05:41:58.964Z,28.6
2019-03-16T05:42:49.254Z,28.4
2019-03-16T05:43:39.621Z,28.2
2019-03-16T05:44:28.021Z,27.9
2019-03-16T05:45:18.998Z,27.8
2019-03-16T05:46:09.198Z,27.6
2019-03-16T05:46:59.531Z,27.4
2019-03-16T05:47:49.852Z,27.3
2019-03-16T05:48:39.663Z,27.2
2019-03-16T05:49:29.756Z,27.1
2019-03-16T05:50:19.568Z,27.1
2019-03-16T05:51:09.633Z,27
2019-03-16T05:52:00.204Z,26.9
2019-03-16T05:52:49.428Z,26.9
2019-03-16T05:53:40.286Z,26.8
2019-03-16T05:54:30.390Z,26.4
2019-03-16T05:55:20.330Z,27.4
2019-03-16T05:56:10.465Z,28.3
2019-03-16T05:57:00.350Z,28.9
2019-03-16T05:57:50.590Z,29.4
2019-03-16T05:58:40.133Z,29.7
2019-03-16T05:59:30.151Z,30.1
2019-03-16T06:00:20.793Z,30.5
2019-03-16T06:01:10.538Z,30.8
2019-03-16T06:02:00.187Z,31.1
2019-03-16T06:02:50.391Z,31.4
2019-03-16T06:05:37.032Z,32.4
2019-03-16T06:06:30.818Z,32.7
2019-03-16T06:07:17.575Z,33
2019-03-16T06:08:08.412Z,33.2
2019-03-16T06:08:58.094Z,33.4
2019-03-16T06:09:47.402Z,32.8
2019-03-16T06:10:37.237Z,32.3
2019-03-16T06:11:27.796Z,32.3
2019-03-16T06:12:17.640Z,32
2019-03-16T06:13:08.235Z,31.5
2019-03-16T06:13:57.682Z,30.9
2019-03-16T06:14:48.617Z,30.3
2019-03-16T06:15:37.807Z,29.7
2019-03-16T06:16:28.139Z,29.3
2019-03-16T06:17:17.684Z,29.1
2019-03-16T06:18:08.532Z,28.9
2019-03-16T06:18:58.309Z,28.7
2019-03-16T06:19:48.382Z,28.4
2019-03-16T06:20:38.519Z,28.2
2019-03-16T06:21:29.043Z,28
2019-03-16T06:23:09.652Z,27.7
2019-03-16T06:23:58.426Z,27.6
2019-03-16T06:24:48.379Z,27.6
2019-03-16T06:25:39.674Z,27.5
2019-03-16T06:26:28.774Z,27.4
2019-03-16T06:27:18.869Z,27.4
2019-03-16T06:28:09.451Z,27.4
2019-03-16T06:28:59.790Z,27.3
2019-03-16T06:29:49.954Z,26.8
2019-03-16T06:30:39.708Z,26.4
2019-03-16T06:31:29.578Z,26.2
2019-03-16T06:32:19.839Z,26.1
2019-03-16T06:33:09.248Z,25.9
2019-03-16T06:33:59.289Z,25.8
2019-03-16T06:34:49.655Z,25.8
2019-03-16T06:35:39.975Z,25.7
2019-03-16T06:36:30.111Z,25.5
2019-03-16T06:37:20.108Z,26.6
2019-03-16T06:38:09.903Z,27.7
2019-03-16T06:39:00.023Z,28.6
2019-03-16T06:39:49.730Z,29.3
2019-03-16T06:40:39.578Z,29.8
2019-03-16T06:41:29.858Z,30.3
2019-03-16T06:42:20.439Z,30.6
2019-03-16T06:43:10.791Z,31
2019-03-16T06:44:00.053Z,31.3
2019-03-16T06:44:50.175Z,31.6
2019-03-16T06:45:40.787Z,31.9
2019-03-16T06:46:31.158Z,32.3
2019-03-16T06:47:23.666Z,32.5
2019-03-16T06:48:10.407Z,32.8
2019-03-16T06:49:01.340Z,33
2019-03-16T06:49:50.790Z,33.2
2019-03-16T06:50:41.385Z,33.4
2019-03-16T06:51:31.375Z,33.3
2019-03-16T06:52:21.142Z,32.4
2019-03-16T06:53:10.367Z,32.4
2019-03-16T06:54:00.735Z,32.3
2019-03-16T06:54:50.785Z,32.1
2019-03-16T06:55:40.984Z,32
2019-03-16T06:56:31.524Z,31.9
2019-03-16T06:57:20.789Z,31.8
2019-03-16T06:58:11.292Z,31.8
2019-03-16T06:59:04.731Z,31.6
2019-03-16T06:59:51.238Z,31.6
2019-03-16T07:00:41.180Z,31.5
2019-03-16T07:01:32.126Z,31.1
2019-03-16T07:02:22.117Z,30.3
2019-03-16T07:03:12.204Z,29.7
2019-03-16T07:05:45.451Z,28.9
2019-03-16T07:06:27.291Z,28.6
2019-03-16T07:07:17.988Z,28.6
2019-03-16T07:08:07.997Z,28.4
2019-03-16T07:08:58.049Z,28.3
2019-03-16T07:09:47.906Z,28.3
2019-03-16T07:10:38.174Z,28.2
2019-03-16T07:11:27.757Z,28.1
2019-03-16T07:12:18.073Z,28.1
2019-03-16T07:13:08.149Z,28.1
2019-03-16T07:13:57.960Z,27.9
2019-03-16T07:14:48.172Z,27.5
2019-03-16T07:15:38.529Z,27.9
2019-03-16T07:16:28.341Z,28.9
2019-03-16T07:17:17.803Z,29.7
2019-03-16T07:18:08.443Z,30.1
2019-03-16T07:19:06.620Z,30.6
2019-03-16T07:19:48.894Z,31
2019-03-16T07:20:39.213Z,31.3
2019-03-16T07:21:28.681Z,31.6
2019-03-16T07:22:18.696Z,31.9
2019-03-16T07:23:08.285Z,32.2
2019-03-16T07:23:58.543Z,32.4
2019-03-16T07:24:53.226Z,32.8
2019-03-16T07:25:39.013Z,33
2019-03-16T07:26:28.408Z,33.3
2019-03-16T07:27:33.621Z,33.4
2019-03-16T07:28:09.478Z,33.6
2019-03-16T07:28:59.158Z,32.8
2019-03-16T07:29:48.935Z,32.5
2019-03-16T07:30:42.333Z,32.4
2019-03-16T07:31:28.927Z,32.3
2019-03-16T07:32:19.165Z,32.3
2019-03-16T07:33:09.520Z,32.1
2019-03-16T07:33:59.222Z,32
2019-03-16T07:34:49.375Z,31.9
2019-03-16T07:35:39.673Z,31.8
2019-03-16T07:36:30.370Z,31.8
2019-03-16T07:37:19.757Z,31.7
2019-03-16T07:38:10.432Z,31.6
2019-03-16T07:38:59.412Z,31.6
2019-03-16T07:39:49.930Z,31.5
2019-03-16T07:40:40.369Z,31.4
2019-03-16T07:41:30.079Z,31.3
2019-03-16T07:42:20.667Z,31.3
2019-03-16T07:43:11.002Z,31.1
2019-03-16T07:44:00.768Z,31.1
2019-03-16T07:44:50.413Z,30.9
2019-03-16T07:45:40.656Z,30.9
2019-03-16T07:46:30.178Z,30.8
2019-03-16T07:47:20.477Z,30.6
2019-03-16T07:48:10.899Z,30.5
2019-03-16T07:49:00.649Z,30.4
2019-03-16T07:49:50.944Z,30.3
2019-03-16T07:50:41.026Z,30.1
2019-03-16T07:51:30.774Z,30.1
2019-03-16T07:52:20.064Z,29.9
2019-03-16T07:53:10.889Z,29.8
2019-03-16T07:54:00.939Z,29.6
2019-03-16T07:54:51.018Z,28.8
2019-03-16T07:55:45.016Z,29.3
2019-03-16T07:56:31.454Z,30.1
2019-03-16T07:57:20.929Z,30.8
2019-03-16T07:58:11.332Z,31.2
2019-03-16T07:59:01.585Z,31.6
2019-03-16T07:59:51.361Z,31.9
2019-03-16T08:00:41.151Z,32.2
2019-03-16T08:01:31.181Z,32.5
2019-03-16T08:02:22.154Z,32.8
2019-03-16T08:03:11.024Z,33.1
2019-03-16T08:04:00.823Z,33.4
2019-03-16T08:04:51.808Z,33.7
2019-03-16T08:05:41.878Z,33.9
2019-03-16T08:06:35.305Z,33.5
2019-03-16T08:07:22.053Z,32.8
2019-03-16T08:08:10.908Z,32.8
2019-03-16T08:09:02.744Z,32.6
2019-03-16T08:09:51.618Z,32.3
2019-03-16T08:10:41.330Z,32.1
2019-03-16T08:11:31.498Z,31.9
2019-03-16T08:12:21.778Z,31.7
2019-03-16T08:13:11.101Z,31.6
2019-03-16T08:14:01.412Z,31.5
2019-03-16T08:14:52.405Z,31.4
2019-03-16T08:15:42.545Z,31.3
2019-03-16T08:16:32.528Z,31.3
2019-03-16T08:17:22.300Z,31.2
2019-03-16T08:18:14.741Z,31.1
2019-03-16T08:19:03.003Z,31.1
2019-03-16T08:19:53.105Z,31
2019-03-16T08:20:43.372Z,30.9
2019-03-16T08:21:33.825Z,30.8
2019-03-16T08:22:23.222Z,30.8
2019-03-16T08:23:13.550Z,30.7
2019-03-16T08:24:03.698Z,30.6
2019-03-16T08:24:53.927Z,30.4
2019-03-16T08:25:42.654Z,30.4
2019-03-16T08:26:32.970Z,30.3
2019-03-16T08:27:23.287Z,30.2
2019-03-16T08:28:13.599Z,30.1
2019-03-16T08:29:07.319Z,30
2019-03-16T08:29:53.732Z,29.9
2019-03-16T08:30:43.942Z,29.8
2019-03-16T08:31:34.140Z,29.6
2019-03-16T08:32:26.537Z,29.4
2019-03-16T08:33:13.437Z,28.8
2019-03-16T08:34:04.339Z,29.4
2019-03-16T08:34:53.524Z,30.3
2019-03-16T08:35:44.507Z,31.1
2019-03-16T08:36:34.349Z,31.9
2019-03-16T08:37:24.106Z,32.2
2019-03-16T08:38:14.356Z,32.6
2019-03-16T08:39:04.411Z,32.9
2019-03-16T08:39:54.784Z,33.2
2019-03-16T08:40:44.121Z,33.5
2019-03-16T08:41:34.583Z,33.8
2019-03-16T08:42:24.986Z,34.1
2019-03-16T08:43:13.196Z,34.1
2019-03-16T08:44:04.432Z,33.1
2019-03-16T08:44:54.614Z,33.1
2019-03-16T08:45:43.913Z,33
2019-03-16T08:46:33.331Z,32.9
2019-03-16T08:47:23.760Z,32.8
2019-03-16T08:48:28.637Z,32.6
2019-03-16T08:49:03.996Z,32.4
2019-03-16T08:49:54.913Z,32.4
2019-03-16T08:50:45.414Z,32.3
2019-03-16T08:51:34.751Z,32.2
2019-03-16T08:52:25.379Z,32.1
2019-03-16T08:53:15.433Z,32
2019-03-16T08:54:05.485Z,31.9
2019-03-16T08:54:55.021Z,31.9
2019-03-16T08:55:45.293Z,31.8
2019-03-16T08:56:35.583Z,31.8
2019-03-16T08:57:25.205Z,31.6
2019-03-16T08:58:15.542Z,31.5
2019-03-16T08:59:05.931Z,31.4
2019-03-16T08:59:55.643Z,31.3
2019-03-16T09:00:46.210Z,31.2
2019-03-16T09:01:35.723Z,31.1
2019-03-16T09:02:25.768Z,30.9
2019-03-16T09:03:15.599Z,30.8
2019-03-16T09:04:06.167Z,30.7
2019-03-16T09:04:55.118Z,30.6
2019-03-16T09:05:46.126Z,30.4
2019-03-16T09:06:36.168Z,30.3
2019-03-16T09:07:25.143Z,30.2
2019-03-16T09:08:16.545Z,30.1
2019-03-16T09:09:05.780Z,29.9
2019-03-16T09:09:56.297Z,29.4
2019-03-16T09:10:46.375Z,29.5
2019-03-16T09:11:36.695Z,30.4
2019-03-16T09:12:26.607Z,31.2
2019-03-16T09:13:16.262Z,31.7
2019-03-16T09:14:06.322Z,32.1
2019-03-16T09:14:57.257Z,32.5
2019-03-16T09:15:47.057Z,32.9
2019-03-16T09:16:36.887Z,33.2
2019-03-16T09:17:26.573Z,33.6
2019-03-16T09:18:16.882Z,33.9
2019-03-16T09:19:07.877Z,34.3
2019-03-16T09:19:56.803Z,34.4
2019-03-16T09:20:47.069Z,33.3
2019-03-16T09:21:37.681Z,33.3
2019-03-16T09:22:31.090Z,33.3
2019-03-16T09:23:17.307Z,33.1
2019-03-16T09:24:07.101Z,33
2019-03-16T09:24:57.702Z,32.9
2019-03-16T09:25:47.518Z,32.8
2019-03-16T09:26:37.827Z,32.7
2019-03-16T09:27:39.160Z,32.6
2019-03-16T09:28:25.665Z,32.5
2019-03-16T09:29:20.930Z,32.4
2019-03-16T09:29:57.692Z,32.3
2019-03-16T09:30:47.527Z,32.3
2019-03-16T09:31:38.419Z,32.2
2019-03-16T09:32:27.609Z,32.1
2019-03-16T09:33:19.705Z,32
2019-03-16T09:34:08.107Z,31.9
2019-03-16T09:34:57.952Z,31.8
2019-03-16T09:35:47.747Z,31.6
2019-03-16T09:36:38.357Z,31.5
2019-03-16T09:37:28.525Z,31.4
2019-03-16T09:38:18.609Z,31.3
2019-03-16T09:39:08.348Z,31.2
2019-03-16T09:39:57.902Z,31.1
2019-03-16T09:40:48.822Z,30.9
2019-03-16T09:41:38.350Z,30.8
2019-03-16T09:42:28.120Z,30.7
2019-03-16T09:43:19.244Z,30.5
2019-03-16T09:44:09.296Z,30.4
2019-03-16T09:44:59.344Z,30.3
2019-03-16T09:45:48.295Z,30.1
2019-03-16T09:46:38.946Z,29.9
2019-03-16T09:47:28.966Z,29.4
2019-03-16T09:48:18.484Z,30.3
2019-03-16T09:49:09.647Z,31.2
2019-03-16T09:49:59.971Z,32.1
2019-03-16T09:51:03.871Z,32.8
2019-03-16T09:51:38.148Z,33.3
2019-03-16T09:52:29.981Z,33.5
2019-03-16T09:53:19.123Z,33.8
2019-03-16T09:54:10.002Z,34.1
2019-03-16T09:54:58.839Z,34.5
2019-03-16T09:55:49.584Z,34.4
2019-03-16T09:56:39.616Z,33.4
2019-03-16T09:57:29.153Z,33.4
2019-03-16T09:58:33.787Z,33.4
2019-03-16T09:59:09.527Z,33.3
2019-03-16T10:00:00.275Z,33.2
2019-03-16T10:00:49.647Z,33
2019-03-16T10:01:39.827Z,32.9
2019-03-16T10:02:30.269Z,32.8
2019-03-16T10:03:19.809Z,32.8
2019-03-16T10:04:10.163Z,32.7
2019-03-16T10:06:37.085Z,32.4
2019-03-16T10:07:27.986Z,32.4
2019-03-16T10:08:20.822Z,32.3
2019-03-16T10:09:07.566Z,32.1
2019-03-16T10:09:58.446Z,32
2019-03-16T10:10:47.977Z,31.9
2019-03-16T10:11:37.790Z,31.8
2019-03-16T10:12:28.151Z,31.6
2019-03-16T10:13:17.400Z,31.6
2019-03-16T10:14:08.476Z,31.4
2019-03-16T10:14:57.725Z,31.3
2019-03-16T10:15:48.029Z,31.1
2019-03-16T10:16:38.644Z,31
2019-03-16T10:17:28.419Z,30.8
2019-03-16T10:18:18.864Z,30.7
2019-03-16T10:19:08.356Z,30.5
2019-03-16T10:19:57.883Z,30.4
2019-03-16T10:20:48.101Z,30.3
2019-03-16T10:21:37.919Z,30.1
2019-03-16T10:22:29.168Z,29.9
2019-03-16T10:23:18.593Z,29.4
2019-03-16T10:24:09.033Z,30.3
2019-03-16T10:24:58.685Z,31.3
2019-03-16T10:25:49.011Z,32.3
2019-03-16T10:26:41.510Z,32.7
2019-03-16T10:27:28.621Z,33.1
2019-03-16T10:28:19.194Z,33.4
2019-03-16T10:29:08.818Z,33.8
2019-03-16T10:29:58.567Z,34.1
2019-03-16T10:30:48.793Z,34.5
2019-03-16T10:31:39.452Z,34.6
2019-03-16T10:32:29.022Z,33.5
2019-03-16T10:33:19.043Z,33.3
2019-03-16T10:34:09.930Z,33.2
2019-03-16T10:34:59.364Z,33.1
2019-03-16T10:35:49.487Z,33
2019-03-16T10:36:39.286Z,32.9
2019-03-16T10:37:30.172Z,32.8
2019-03-16T10:38:20.197Z,32.7
2019-03-16T10:39:10.065Z,32.6
2019-03-16T10:40:00.455Z,32.5
2019-03-16T10:40:50.095Z,32.4
2019-03-16T10:41:39.572Z,32.3
2019-03-16T10:42:30.826Z,32.1
2019-03-16T10:43:20.039Z,32.1
2019-03-16T10:44:10.584Z,31.9
2019-03-16T10:45:00.867Z,31.8
2019-03-16T10:45:50.253Z,31.7
2019-03-16T10:46:40.599Z,31.6
2019-03-16T10:47:30.298Z,31.4
2019-03-16T10:48:20.359Z,31.3
2019-03-16T10:49:10.499Z,31.2
2019-03-16T10:50:00.836Z,31.1
2019-03-16T10:50:50.742Z,30.9
2019-03-16T10:51:40.701Z,30.8
2019-03-16T10:52:30.084Z,30.7
2019-03-16T10:53:21.256Z,30.6
2019-03-16T10:54:10.896Z,30.4
2019-03-16T10:55:01.336Z,30.3
2019-03-16T10:55:51.148Z,30.2
2019-03-16T10:56:41.738Z,30.1
2019-03-16T10:57:31.328Z,29.9
2019-03-16T10:58:21.625Z,29.8
2019-03-16T10:59:11.116Z,29.1
2019-03-16T11:00:01.176Z,29.6
2019-03-16T11:00:51.799Z,30.7
2019-03-16T11:01:41.303Z,31.8
2019-03-16T11:02:31.923Z,32.4
2019-03-16T11:03:21.171Z,32.8
2019-03-16T11:04:10.740Z,33.3
2019-03-16T11:05:01.350Z,33.6
2019-03-16T11:05:52.196Z,34
2019-03-16T11:06:42.255Z,34.3
2019-03-16T11:07:31.148Z,34.7
2019-03-16T11:08:22.391Z,33.8
2019-03-16T11:09:12.178Z,33.4
2019-03-16T11:10:00.781Z,33.5
2019-03-16T11:10:52.020Z,33.4
2019-03-16T11:11:42.414Z,33.3
2019-03-16T11:12:32.340Z,33.1
2019-03-16T11:13:21.673Z,33
2019-03-16T11:14:11.983Z,32.9
2019-03-16T11:15:01.975Z,32.8
2019-03-16T11:15:52.420Z,32.8
2019-03-16T11:16:43.278Z,32.6
2019-03-16T11:17:46.753Z,32.6
2019-03-16T11:18:22.485Z,32.4
2019-03-16T11:19:13.178Z,32.4
2019-03-16T11:20:03.110Z,32.3
2019-03-16T11:20:52.973Z,32.2